sensor_id;sensor_type;location;lat;lon;timestamp;temperature;humidity
13682;DHT22;6913;49.892;7.936;2022-07-29T00:01:48;20.40;99.90
13682;DHT22;6913;49.892;7.936;2022-07-29T00:04:17;20.40;99.90
13682;DHT22;6913;49.892;7.936;2022-07-29T00:06:44;20.40;99.90
13682;DHT22;6913;49.892;7.936;2022-07-29T00:09:12;20.40;99.90
13682;DHT22;6913;49.892;7.936;2022-07-29T00:11:40;20.50;99.90
13682;DHT22;6913;49.892;7.936;2022-07-29T00:14:06;20.50;99.90
13682;DHT22;6913;49.892;7.936;2022-07-29T00:16:33;20.40;99.90
13682;DHT22;6913;49.892;7.936;2022-07-29T00:19:00;20.30;99.90
13682;DHT22;6913;49.892;7.936;2022-07-29T00:21:27;20.20;99.90
13682;DHT22;6913;49.892;7.936;2022-07-29T00:23:54;20.30;99.90
13682;DHT22;6913;49.892;7.936;2022-07-29T00:26:22;20.30;99.90
13682;DHT22;6913;49.892;7.936;2022-07-29T00:28:49;20.30;99.90
13682;DHT22;6913;49.892;7.936;2022-07-29T00:31:16;20.20;99.90
13682;DHT22;6913;49.892;7.936;2022-07-29T00:33:43;19.90;99.90
13682;DHT22;6913;49.892;7.936;2022-07-29T00:36:09;19.50;99.90
13682;DHT22;6913;49.892;7.936;2022-07-29T00:38:35;18.90;99.90
13682;DHT22;6913;49.892;7.936;2022-07-29T00:41:02;18.60;99.90
13682;DHT22;6913;49.892;7.936;2022-07-29T00:43:30;18.70;99.90
13682;DHT22;6913;49.892;7.936;2022-07-29T00:45:57;19.00;99.90
13682;DHT22;6913;49.892;7.936;2022-07-29T00:48:24;19.30;99.90
13682;DHT22;6913;49.892;7.936;2022-07-29T00:50:51;19.50;99.90
13682;DHT22;6913;49.892;7.936;2022-07-29T00:53:19;19.50;99.90
13682;DHT22;6913;49.892;7.936;2022-07-29T00:55:46;19.30;99.90
13682;DHT22;6913;49.892;7.936;2022-07-29T00:58:13;19.10;99.90
13682;DHT22;6913;49.892;7.936;2022-07-29T01:00:42;18.90;99.90
13682;DHT22;6913;49.892;7.936;2022-07-29T01:03:09;19.10;99.90
13682;DHT22;6913;49.892;7.936;2022-07-29T01:05:35;19.30;99.90
13682;DHT22;6913;49.892;7.936;2022-07-29T01:08:02;19.40;99.90
13682;DHT22;6913;49.892;7.936;2022-07-29T01:10:30;19.50;99.90
13682;DHT22;6913;49.892;7.936;2022-07-29T01:12:58;19.50;99.90
13682;DHT22;6913;49.892;7.936;2022-07-29T01:15:26;19.50;99.90
13682;DHT22;6913;49.892;7.936;2022-07-29T01:18:01;19.80;99.90
13682;DHT22;6913;49.892;7.936;2022-07-29T01:20:40;19.60;99.90
13682;DHT22;6913;49.892;7.936;2022-07-29T01:23:40;19.40;99.90
13682;DHT22;6913;49.892;7.936;2022-07-29T01:26:28;19.40;99.90
13682;DHT22;6913;49.892;7.936;2022-07-29T01:29:06;19.50;99.90
13682;DHT22;6913;49.892;7.936;2022-07-29T01:31:42;19.10;99.90
13682;DHT22;6913;49.892;7.936;2022-07-29T01:34:15;19.00;99.90
13682;DHT22;6913;49.892;7.936;2022-07-29T01:36:48;18.90;99.90
13682;DHT22;6913;49.892;7.936;2022-07-29T01:39:19;19.00;99.90
13682;DHT22;6913;49.892;7.936;2022-07-29T01:41:50;19.00;99.90
13682;DHT22;6913;49.892;7.936;2022-07-29T01:44:24;19.00;99.90
13682;DHT22;6913;49.892;7.936;2022-07-29T01:46:57;19.00;99.90
13682;DHT22;6913;49.892;7.936;2022-07-29T01:49:28;19.00;99.90
13682;DHT22;6913;49.892;7.936;2022-07-29T01:51:59;18.80;99.90
13682;DHT22;6913;49.892;7.936;2022-07-29T01:54:30;18.50;99.90
13682;DHT22;6913;49.892;7.936;2022-07-29T01:56:59;18.30;99.90
13682;DHT22;6913;49.892;7.936;2022-07-29T01:59:29;18.40;99.90
13682;DHT22;6913;49.892;7.936;2022-07-29T02:01:58;18.40;99.90
13682;DHT22;6913;49.892;7.936;2022-07-29T02:04:26;18.50;99.90
13682;DHT22;6913;49.892;7.936;2022-07-29T02:06:58;18.40;99.90
13682;DHT22;6913;49.892;7.936;2022-07-29T02:09:26;18.40;99.90
13682;DHT22;6913;49.892;7.936;2022-07-29T02:11:56;18.40;99.90
13682;DHT22;6913;49.892;7.936;2022-07-29T02:14:24;18.50;99.90
13682;DHT22;6913;49.892;7.936;2022-07-29T02:16:56;18.50;99.90
13682;DHT22;6913;49.892;7.936;2022-07-29T02:19:25;18.40;99.90
13682;DHT22;6913;49.892;7.936;2022-07-29T02:21:54;18.50;99.90
13682;DHT22;6913;49.892;7.936;2022-07-29T02:24:23;18.40;99.90
13682;DHT22;6913;49.892;7.936;2022-07-29T02:26:53;18.30;99.90
13682;DHT22;6913;49.892;7.936;2022-07-29T02:29:24;18.40;99.90
13682;DHT22;6913;49.892;7.936;2022-07-29T02:31:53;18.40;99.90
13682;DHT22;6913;49.892;7.936;2022-07-29T02:34:22;18.30;99.90
13682;DHT22;6913;49.892;7.936;2022-07-29T02:36:50;18.30;99.90
13682;DHT22;6913;49.892;7.936;2022-07-29T02:39:17;18.20;99.90
13682;DHT22;6913;49.892;7.936;2022-07-29T02:41:51;18.10;99.90
13682;DHT22;6913;49.892;7.936;2022-07-29T02:44:20;18.10;99.90
13682;DHT22;6913;49.892;7.936;2022-07-29T02:46:50;18.00;99.90
13682;DHT22;6913;49.892;7.936;2022-07-29T02:49:29;18.00;99.90
13682;DHT22;6913;49.892;7.936;2022-07-29T02:52:01;17.90;99.90
13682;DHT22;6913;49.892;7.936;2022-07-29T02:54:34;17.80;99.90
13682;DHT22;6913;49.892;7.936;2022-07-29T02:57:09;17.70;99.90
13682;DHT22;6913;49.892;7.936;2022-07-29T02:59:41;17.60;99.90
13682;DHT22;6913;49.892;7.936;2022-07-29T03:02:09;17.40;99.90
13682;DHT22;6913;49.892;7.936;2022-07-29T03:04:40;17.40;99.90
13682;DHT22;6913;49.892;7.936;2022-07-29T03:07:09;17.30;99.90
13682;DHT22;6913;49.892;7.936;2022-07-29T03:09:37;17.30;99.90
13682;DHT22;6913;49.892;7.936;2022-07-29T03:12:05;17.10;99.90
13682;DHT22;6913;49.892;7.936;2022-07-29T03:14:33;17.00;99.90
13682;DHT22;6913;49.892;7.936;2022-07-29T03:17:00;16.90;99.90
13682;DHT22;6913;49.892;7.936;2022-07-29T03:19:27;16.80;99.90
13682;DHT22;6913;49.892;7.936;2022-07-29T03:21:57;16.80;99.90
13682;DHT22;6913;49.892;7.936;2022-07-29T03:24:31;16.80;99.90
13682;DHT22;6913;49.892;7.936;2022-07-29T03:26:58;16.80;99.90
13682;DHT22;6913;49.892;7.936;2022-07-29T03:29:26;16.80;99.90
13682;DHT22;6913;49.892;7.936;2022-07-29T03:31:53;16.80;99.90
13682;DHT22;6913;49.892;7.936;2022-07-29T03:34:20;16.70;99.90
13682;DHT22;6913;49.892;7.936;2022-07-29T03:36:48;16.70;99.90
13682;DHT22;6913;49.892;7.936;2022-07-29T03:39:19;16.70;99.90
13682;DHT22;6913;49.892;7.936;2022-07-29T03:41:51;16.60;99.90
13682;DHT22;6913;49.892;7.936;2022-07-29T03:44:19;16.60;99.90
13682;DHT22;6913;49.892;7.936;2022-07-29T03:46:48;16.60;99.90
13682;DHT22;6913;49.892;7.936;2022-07-29T03:49:16;16.60;99.90
13682;DHT22;6913;49.892;7.936;2022-07-29T03:51:45;16.50;99.90
13682;DHT22;6913;49.892;7.936;2022-07-29T03:54:13;16.50;99.90
13682;DHT22;6913;49.892;7.936;2022-07-29T03:56:44;16.40;99.90
13682;DHT22;6913;49.892;7.936;2022-07-29T03:59:13;16.30;99.90
13682;DHT22;6913;49.892;7.936;2022-07-29T04:01:41;16.30;99.90
13682;DHT22;6913;49.892;7.936;2022-07-29T04:04:08;16.30;99.90
13682;DHT22;6913;49.892;7.936;2022-07-29T04:06:39;16.20;99.90
13682;DHT22;6913;49.892;7.936;2022-07-29T04:09:07;16.10;99.90
13682;DHT22;6913;49.892;7.936;2022-07-29T04:11:35;16.00;99.90
13682;DHT22;6913;49.892;7.936;2022-07-29T04:14:04;16.00;99.90
13682;DHT22;6913;49.892;7.936;2022-07-29T04:16:31;16.00;99.90
13682;DHT22;6913;49.892;7.936;2022-07-29T04:18:59;16.00;99.90
13682;DHT22;6913;49.892;7.936;2022-07-29T04:21:26;16.00;99.90
13682;DHT22;6913;49.892;7.936;2022-07-29T04:23:53;16.00;99.90
13682;DHT22;6913;49.892;7.936;2022-07-29T04:26:20;15.70;99.90
13682;DHT22;6913;49.892;7.936;2022-07-29T04:28:47;15.80;99.90
13682;DHT22;6913;49.892;7.936;2022-07-29T04:31:15;15.90;99.90
13682;DHT22;6913;49.892;7.936;2022-07-29T04:33:42;16.10;99.90
13682;DHT22;6913;49.892;7.936;2022-07-29T04:36:09;16.30;99.90
13682;DHT22;6913;49.892;7.936;2022-07-29T04:38:37;16.60;99.90
13682;DHT22;6913;49.892;7.936;2022-07-29T04:41:04;16.90;99.90
13682;DHT22;6913;49.892;7.936;2022-07-29T04:43:32;17.10;99.90
13682;DHT22;6913;49.892;7.936;2022-07-29T04:45:59;17.40;99.90
13682;DHT22;6913;49.892;7.936;2022-07-29T04:48:28;17.80;99.90
13682;DHT22;6913;49.892;7.936;2022-07-29T04:50:55;18.20;99.90
13682;DHT22;6913;49.892;7.936;2022-07-29T04:53:22;18.50;99.90
13682;DHT22;6913;49.892;7.936;2022-07-29T04:55:49;18.70;99.90
13682;DHT22;6913;49.892;7.936;2022-07-29T04:58:16;19.00;99.90
13682;DHT22;6913;49.892;7.936;2022-07-29T05:00:43;19.70;99.90
13682;DHT22;6913;49.892;7.936;2022-07-29T05:03:10;18.90;99.90
13682;DHT22;6913;49.892;7.936;2022-07-29T05:05:38;19.30;99.90
13682;DHT22;6913;49.892;7.936;2022-07-29T05:08:06;19.50;99.90
13682;DHT22;6913;49.892;7.936;2022-07-29T05:10:33;20.10;99.90
13682;DHT22;6913;49.892;7.936;2022-07-29T05:13:04;20.70;99.90
13682;DHT22;6913;49.892;7.936;2022-07-29T05:15:31;21.10;99.90
13682;DHT22;6913;49.892;7.936;2022-07-29T05:17:57;21.40;99.90
13682;DHT22;6913;49.892;7.936;2022-07-29T05:20:24;21.70;99.90
13682;DHT22;6913;49.892;7.936;2022-07-29T05:22:55;22.10;99.90
13682;DHT22;6913;49.892;7.936;2022-07-29T05:25:22;22.40;99.90
13682;DHT22;6913;49.892;7.936;2022-07-29T05:27:49;22.30;99.90
13682;DHT22;6913;49.892;7.936;2022-07-29T05:30:16;22.30;99.90
13682;DHT22;6913;49.892;7.936;2022-07-29T05:32:43;22.00;99.90
13682;DHT22;6913;49.892;7.936;2022-07-29T05:35:12;22.20;99.90
13682;DHT22;6913;49.892;7.936;2022-07-29T05:37:39;22.80;99.90
13682;DHT22;6913;49.892;7.936;2022-07-29T05:40:08;22.90;99.90
13682;DHT22;6913;49.892;7.936;2022-07-29T05:42:35;23.70;99.90
13682;DHT22;6913;49.892;7.936;2022-07-29T05:45:03;22.90;99.90
13682;DHT22;6913;49.892;7.936;2022-07-29T05:47:31;22.00;99.90
13682;DHT22;6913;49.892;7.936;2022-07-29T05:49:58;22.10;99.90
13682;DHT22;6913;49.892;7.936;2022-07-29T05:52:25;23.00;99.90
13682;DHT22;6913;49.892;7.936;2022-07-29T05:54:52;23.60;99.90
13682;DHT22;6913;49.892;7.936;2022-07-29T05:57:21;23.40;99.90
13682;DHT22;6913;49.892;7.936;2022-07-29T05:59:49;24.00;99.90
13682;DHT22;6913;49.892;7.936;2022-07-29T06:02:17;24.10;99.90
13682;DHT22;6913;49.892;7.936;2022-07-29T06:04:44;24.50;99.90
13682;DHT22;6913;49.892;7.936;2022-07-29T06:07:11;25.30;99.90
13682;DHT22;6913;49.892;7.936;2022-07-29T06:09:38;25.40;99.90
13682;DHT22;6913;49.892;7.936;2022-07-29T06:12:05;26.10;99.90
13682;DHT22;6913;49.892;7.936;2022-07-29T06:14:34;25.60;99.90
13682;DHT22;6913;49.892;7.936;2022-07-29T06:17:03;25.40;99.90
13682;DHT22;6913;49.892;7.936;2022-07-29T06:19:30;26.20;99.90
13682;DHT22;6913;49.892;7.936;2022-07-29T06:21:58;26.90;99.90
13682;DHT22;6913;49.892;7.936;2022-07-29T06:24:25;27.60;99.90
13682;DHT22;6913;49.892;7.936;2022-07-29T06:26:52;27.90;99.90
13682;DHT22;6913;49.892;7.936;2022-07-29T06:29:19;27.60;99.90
13682;DHT22;6913;49.892;7.936;2022-07-29T06:31:48;27.40;99.90
13682;DHT22;6913;49.892;7.936;2022-07-29T06:34:15;28.20;99.90
13682;DHT22;6913;49.892;7.936;2022-07-29T06:36:42;27.90;99.90
13682;DHT22;6913;49.892;7.936;2022-07-29T06:39:09;27.30;99.90
13682;DHT22;6913;49.892;7.936;2022-07-29T06:41:36;26.80;99.90
13682;DHT22;6913;49.892;7.936;2022-07-29T06:44:04;26.80;99.90
13682;DHT22;6913;49.892;7.936;2022-07-29T06:46:31;27.40;99.90
13682;DHT22;6913;49.892;7.936;2022-07-29T06:48:59;28.30;99.90
13682;DHT22;6913;49.892;7.936;2022-07-29T06:51:28;28.40;99.90
13682;DHT22;6913;49.892;7.936;2022-07-29T06:53:55;26.10;99.90
13682;DHT22;6913;49.892;7.936;2022-07-29T06:56:23;25.10;99.90
13682;DHT22;6913;49.892;7.936;2022-07-29T06:58:50;26.20;99.90
13682;DHT22;6913;49.892;7.936;2022-07-29T07:01:17;26.80;99.90
13682;DHT22;6913;49.892;7.936;2022-07-29T07:03:45;27.30;99.90
13682;DHT22;6913;49.892;7.936;2022-07-29T07:06:13;27.70;99.90
13682;DHT22;6913;49.892;7.936;2022-07-29T07:08:40;27.50;99.90
13682;DHT22;6913;49.892;7.936;2022-07-29T07:11:08;28.30;99.90
13682;DHT22;6913;49.892;7.936;2022-07-29T07:13:35;27.80;99.90
13682;DHT22;6913;49.892;7.936;2022-07-29T07:16:02;27.80;99.90
13682;DHT22;6913;49.892;7.936;2022-07-29T07:18:30;26.40;99.90
13682;DHT22;6913;49.892;7.936;2022-07-29T07:20:57;26.30;99.90
13682;DHT22;6913;49.892;7.936;2022-07-29T07:23:25;25.80;99.90
13682;DHT22;6913;49.892;7.936;2022-07-29T07:25:52;25.80;99.90
13682;DHT22;6913;49.892;7.936;2022-07-29T07:28:20;25.70;99.90
13682;DHT22;6913;49.892;7.936;2022-07-29T07:30:47;26.40;99.90
13682;DHT22;6913;49.892;7.936;2022-07-29T07:33:14;26.70;99.90
13682;DHT22;6913;49.892;7.936;2022-07-29T07:35:41;26.90;99.90
13682;DHT22;6913;49.892;7.936;2022-07-29T07:38:09;27.50;99.90
13682;DHT22;6913;49.892;7.936;2022-07-29T07:40:38;27.80;99.90
13682;DHT22;6913;49.892;7.936;2022-07-29T07:43:05;27.90;99.70
13682;DHT22;6913;49.892;7.936;2022-07-29T07:45:32;27.90;99.20
13682;DHT22;6913;49.892;7.936;2022-07-29T07:47:59;27.10;99.90
13682;DHT22;6913;49.892;7.936;2022-07-29T07:50:26;26.90;98.90
13682;DHT22;6913;49.892;7.936;2022-07-29T07:52:55;25.30;99.90
13682;DHT22;6913;49.892;7.936;2022-07-29T07:55:23;25.40;99.90
13682;DHT22;6913;49.892;7.936;2022-07-29T07:57:52;26.60;99.90
13682;DHT22;6913;49.892;7.936;2022-07-29T08:00:20;28.00;98.70
13682;DHT22;6913;49.892;7.936;2022-07-29T08:02:47;28.50;97.40
13682;DHT22;6913;49.892;7.936;2022-07-29T08:05:15;28.50;97.90
13682;DHT22;6913;49.892;7.936;2022-07-29T08:07:44;29.90;96.20
13682;DHT22;6913;49.892;7.936;2022-07-29T08:10:11;29.70;95.80
13682;DHT22;6913;49.892;7.936;2022-07-29T08:12:39;29.20;97.20
13682;DHT22;6913;49.892;7.936;2022-07-29T08:15:08;29.90;95.90
13682;DHT22;6913;49.892;7.936;2022-07-29T08:17:36;30.70;94.20
13682;DHT22;6913;49.892;7.936;2022-07-29T08:20:03;29.40;93.80
13682;DHT22;6913;49.892;7.936;2022-07-29T08:22:31;29.70;95.50
13682;DHT22;6913;49.892;7.936;2022-07-29T08:24:58;30.70;94.50
13682;DHT22;6913;49.892;7.936;2022-07-29T08:27:25;31.50;93.10
13682;DHT22;6913;49.892;7.936;2022-07-29T08:29:55;32.00;92.40
13682;DHT22;6913;49.892;7.936;2022-07-29T08:32:24;31.80;90.80
13682;DHT22;6913;49.892;7.936;2022-07-29T08:34:51;30.30;92.40
13682;DHT22;6913;49.892;7.936;2022-07-29T08:37:18;31.10;91.90
13682;DHT22;6913;49.892;7.936;2022-07-29T08:39:46;30.90;92.00
13682;DHT22;6913;49.892;7.936;2022-07-29T08:42:13;31.70;91.40
13682;DHT22;6913;49.892;7.936;2022-07-29T08:44:42;31.80;91.20
13682;DHT22;6913;49.892;7.936;2022-07-29T08:47:10;32.30;90.00
13682;DHT22;6913;49.892;7.936;2022-07-29T08:49:41;32.60;90.20
13682;DHT22;6913;49.892;7.936;2022-07-29T08:52:10;32.80;85.60
13682;DHT22;6913;49.892;7.936;2022-07-29T08:54:39;32.50;88.20
13682;DHT22;6913;49.892;7.936;2022-07-29T08:57:06;32.90;87.50
13682;DHT22;6913;49.892;7.936;2022-07-29T08:59:34;31.70;84.20
13682;DHT22;6913;49.892;7.936;2022-07-29T09:02:02;31.60;87.10
13682;DHT22;6913;49.892;7.936;2022-07-29T09:04:30;31.70;86.10
13682;DHT22;6913;49.892;7.936;2022-07-29T09:07:02;31.70;85.60
13682;DHT22;6913;49.892;7.936;2022-07-29T09:09:32;31.90;84.70
13682;DHT22;6913;49.892;7.936;2022-07-29T09:12:00;32.70;86.50
13682;DHT22;6913;49.892;7.936;2022-07-29T09:14:31;32.90;83.40
13682;DHT22;6913;49.892;7.936;2022-07-29T09:16:58;33.50;81.50
13682;DHT22;6913;49.892;7.936;2022-07-29T09:19:27;33.00;83.00
13682;DHT22;6913;49.892;7.936;2022-07-29T09:21:56;33.00;82.00
13682;DHT22;6913;49.892;7.936;2022-07-29T09:24:37;33.40;82.60
13682;DHT22;6913;49.892;7.936;2022-07-29T09:27:09;32.90;80.60
13682;DHT22;6913;49.892;7.936;2022-07-29T09:29:37;30.40;87.30
13682;DHT22;6913;49.892;7.936;2022-07-29T09:32:08;31.10;88.00
13682;DHT22;6913;49.892;7.936;2022-07-29T09:34:36;31.10;86.60
13682;DHT22;6913;49.892;7.936;2022-07-29T09:37:04;31.20;87.20
13682;DHT22;6913;49.892;7.936;2022-07-29T09:39:39;30.40;88.40
13682;DHT22;6913;49.892;7.936;2022-07-29T09:42:11;31.50;86.80
13682;DHT22;6913;49.892;7.936;2022-07-29T09:44:44;32.40;84.50
13682;DHT22;6913;49.892;7.936;2022-07-29T09:47:11;33.20;84.10
13682;DHT22;6913;49.892;7.936;2022-07-29T09:49:53;33.80;81.40
13682;DHT22;6913;49.892;7.936;2022-07-29T09:52:23;34.40;80.70
13682;DHT22;6913;49.892;7.936;2022-07-29T09:54:51;34.50;79.80
13682;DHT22;6913;49.892;7.936;2022-07-29T09:57:24;34.10;78.20
13682;DHT22;6913;49.892;7.936;2022-07-29T10:00:00;33.40;79.50
13682;DHT22;6913;49.892;7.936;2022-07-29T10:02:29;31.90;81.70
13682;DHT22;6913;49.892;7.936;2022-07-29T10:04:58;30.00;86.40
13682;DHT22;6913;49.892;7.936;2022-07-29T10:07:25;29.30;90.60
13682;DHT22;6913;49.892;7.936;2022-07-29T10:09:56;29.90;90.10
13682;DHT22;6913;49.892;7.936;2022-07-29T10:12:24;30.70;87.50
13682;DHT22;6913;49.892;7.936;2022-07-29T10:14:51;29.10;90.40
13682;DHT22;6913;49.892;7.936;2022-07-29T10:17:19;29.10;91.00
13682;DHT22;6913;49.892;7.936;2022-07-29T10:19:47;30.10;89.70
13682;DHT22;6913;49.892;7.936;2022-07-29T10:22:15;29.20;90.60
13682;DHT22;6913;49.892;7.936;2022-07-29T10:24:42;29.50;91.00
13682;DHT22;6913;49.892;7.936;2022-07-29T10:27:11;29.90;90.10
13682;DHT22;6913;49.892;7.936;2022-07-29T10:29:38;29.90;90.00
13682;DHT22;6913;49.892;7.936;2022-07-29T10:32:20;30.30;90.80
13682;DHT22;6913;49.892;7.936;2022-07-29T10:35:15;31.60;89.30
13682;DHT22;6913;49.892;7.936;2022-07-29T10:38:09;33.10;86.10
13682;DHT22;6913;49.892;7.936;2022-07-29T10:40:45;34.30;83.00
13682;DHT22;6913;49.892;7.936;2022-07-29T10:43:35;33.40;82.20
13682;DHT22;6913;49.892;7.936;2022-07-29T10:46:04;33.20;83.00
13682;DHT22;6913;49.892;7.936;2022-07-29T10:48:32;31.00;85.50
13682;DHT22;6913;49.892;7.936;2022-07-29T10:51:00;29.10;90.40
13682;DHT22;6913;49.892;7.936;2022-07-29T10:53:48;29.60;90.70
13682;DHT22;6913;49.892;7.936;2022-07-29T10:56:23;30.70;89.00
13682;DHT22;6913;49.892;7.936;2022-07-29T10:59:25;30.50;88.40
13682;DHT22;6913;49.892;7.936;2022-07-29T11:01:54;31.30;88.50
13682;DHT22;6913;49.892;7.936;2022-07-29T11:07:25;30.40;90.20
13682;DHT22;6913;49.892;7.936;2022-07-29T11:10:19;31.40;89.80
13682;DHT22;6913;49.892;7.936;2022-07-29T11:12:47;32.70;86.70
13682;DHT22;6913;49.892;7.936;2022-07-29T11:15:17;33.20;84.50
13682;DHT22;6913;49.892;7.936;2022-07-29T11:18:08;34.10;82.80
13682;DHT22;6913;49.892;7.936;2022-07-29T11:20:40;34.50;80.20
13682;DHT22;6913;49.892;7.936;2022-07-29T11:23:24;34.90;79.10
13682;DHT22;6913;49.892;7.936;2022-07-29T11:26:14;34.20;78.10
13682;DHT22;6913;49.892;7.936;2022-07-29T11:29:00;33.30;80.90
13682;DHT22;6913;49.892;7.936;2022-07-29T11:31:37;33.30;81.10
13682;DHT22;6913;49.892;7.936;2022-07-29T11:34:18;33.10;82.80
13682;DHT22;6913;49.892;7.936;2022-07-29T11:37:14;31.80;84.80
13682;DHT22;6913;49.892;7.936;2022-07-29T11:39:42;31.40;86.00
13682;DHT22;6913;49.892;7.936;2022-07-29T11:42:38;31.90;85.70
13682;DHT22;6913;49.892;7.936;2022-07-29T11:45:07;32.50;84.80
13682;DHT22;6913;49.892;7.936;2022-07-29T11:47:37;32.40;84.60
13682;DHT22;6913;49.892;7.936;2022-07-29T11:50:07;32.40;83.70
13682;DHT22;6913;49.892;7.936;2022-07-29T11:52:36;32.40;84.60
13682;DHT22;6913;49.892;7.936;2022-07-29T11:55:09;30.60;86.50
13682;DHT22;6913;49.892;7.936;2022-07-29T11:57:36;30.50;88.10
13682;DHT22;6913;49.892;7.936;2022-07-29T12:00:04;31.60;85.70
13682;DHT22;6913;49.892;7.936;2022-07-29T12:02:41;31.60;85.40
13682;DHT22;6913;49.892;7.936;2022-07-29T12:05:09;31.20;85.60
13682;DHT22;6913;49.892;7.936;2022-07-29T12:07:38;32.00;86.40
13682;DHT22;6913;49.892;7.936;2022-07-29T12:10:07;32.50;83.80
13682;DHT22;6913;49.892;7.936;2022-07-29T12:12:35;32.00;84.40
13682;DHT22;6913;49.892;7.936;2022-07-29T12:15:13;32.50;83.30
13682;DHT22;6913;49.892;7.936;2022-07-29T12:17:42;31.90;84.70
13682;DHT22;6913;49.892;7.936;2022-07-29T12:20:09;31.90;83.10
13682;DHT22;6913;49.892;7.936;2022-07-29T12:22:39;31.60;84.50
13682;DHT22;6913;49.892;7.936;2022-07-29T12:25:11;31.80;84.00
13682;DHT22;6913;49.892;7.936;2022-07-29T12:27:41;31.50;84.70
13682;DHT22;6913;49.892;7.936;2022-07-29T12:30:11;32.20;83.80
13682;DHT22;6913;49.892;7.936;2022-07-29T12:32:40;32.80;82.80
13682;DHT22;6913;49.892;7.936;2022-07-29T12:35:10;33.20;82.30
13682;DHT22;6913;49.892;7.936;2022-07-29T12:37:40;33.40;80.70
13682;DHT22;6913;49.892;7.936;2022-07-29T12:40:08;32.90;80.60
13682;DHT22;6913;49.892;7.936;2022-07-29T12:42:36;31.90;81.70
13682;DHT22;6913;49.892;7.936;2022-07-29T12:45:04;32.60;82.20
13682;DHT22;6913;49.892;7.936;2022-07-29T12:47:32;33.40;80.10
13682;DHT22;6913;49.892;7.936;2022-07-29T12:50:12;33.00;81.10
13682;DHT22;6913;49.892;7.936;2022-07-29T12:52:40;32.70;79.40
13682;DHT22;6913;49.892;7.936;2022-07-29T12:55:07;31.00;81.50
13682;DHT22;6913;49.892;7.936;2022-07-29T12:57:44;31.30;81.50
13682;DHT22;6913;49.892;7.936;2022-07-29T13:00:13;31.60;79.80
13682;DHT22;6913;49.892;7.936;2022-07-29T13:02:42;31.80;80.30
13682;DHT22;6913;49.892;7.936;2022-07-29T13:05:11;32.90;78.40
13682;DHT22;6913;49.892;7.936;2022-07-29T13:07:39;33.80;76.70
13682;DHT22;6913;49.892;7.936;2022-07-29T13:10:14;34.20;74.20
13682;DHT22;6913;49.892;7.936;2022-07-29T13:15:42;33.20;75.20
13682;DHT22;6913;49.892;7.936;2022-07-29T13:18:27;32.50;77.70
13682;DHT22;6913;49.892;7.936;2022-07-29T13:20:56;32.40;76.60
13682;DHT22;6913;49.892;7.936;2022-07-29T13:23:23;32.60;74.80
13682;DHT22;6913;49.892;7.936;2022-07-29T13:25:50;32.70;76.00
13682;DHT22;6913;49.892;7.936;2022-07-29T13:28:17;32.70;76.80
13682;DHT22;6913;49.892;7.936;2022-07-29T13:30:44;33.10;75.20
13682;DHT22;6913;49.892;7.936;2022-07-29T13:33:11;33.10;75.20
13682;DHT22;6913;49.892;7.936;2022-07-29T13:35:38;33.70;74.00
13682;DHT22;6913;49.892;7.936;2022-07-29T13:38:06;34.10;72.70
13682;DHT22;6913;49.892;7.936;2022-07-29T13:40:33;34.20;71.50
13682;DHT22;6913;49.892;7.936;2022-07-29T13:43:00;32.80;74.10
13682;DHT22;6913;49.892;7.936;2022-07-29T13:45:28;33.30;74.00
13682;DHT22;6913;49.892;7.936;2022-07-29T13:47:55;33.20;73.90
13682;DHT22;6913;49.892;7.936;2022-07-29T13:50:22;33.40;73.70
13682;DHT22;6913;49.892;7.936;2022-07-29T13:52:49;33.70;73.30
13682;DHT22;6913;49.892;7.936;2022-07-29T13:55:18;34.00;73.00
13682;DHT22;6913;49.892;7.936;2022-07-29T13:57:45;33.80;72.40
13682;DHT22;6913;49.892;7.936;2022-07-29T14:00:13;34.00;72.50
13682;DHT22;6913;49.892;7.936;2022-07-29T14:02:41;34.20;71.50
13682;DHT22;6913;49.892;7.936;2022-07-29T14:05:08;34.00;72.40
13682;DHT22;6913;49.892;7.936;2022-07-29T14:07:36;34.00;72.00
13682;DHT22;6913;49.892;7.936;2022-07-29T14:10:05;33.40;72.80
13682;DHT22;6913;49.892;7.936;2022-07-29T14:12:33;33.30;72.80
13682;DHT22;6913;49.892;7.936;2022-07-29T14:15:00;33.00;73.00
13682;DHT22;6913;49.892;7.936;2022-07-29T14:17:27;32.10;75.10
13682;DHT22;6913;49.892;7.936;2022-07-29T14:19:54;32.30;75.20
13682;DHT22;6913;49.892;7.936;2022-07-29T14:22:21;31.90;76.20
13682;DHT22;6913;49.892;7.936;2022-07-29T14:24:48;32.50;74.10
13682;DHT22;6913;49.892;7.936;2022-07-29T14:27:15;32.50;73.90
13682;DHT22;6913;49.892;7.936;2022-07-29T14:29:44;32.20;74.50
13682;DHT22;6913;49.892;7.936;2022-07-29T14:32:11;32.20;74.80
13682;DHT22;6913;49.892;7.936;2022-07-29T14:34:40;32.10;73.90
13682;DHT22;6913;49.892;7.936;2022-07-29T14:37:07;32.20;73.80
13682;DHT22;6913;49.892;7.936;2022-07-29T14:39:34;32.30;72.60
13682;DHT22;6913;49.892;7.936;2022-07-29T14:42:02;32.30;71.00
13682;DHT22;6913;49.892;7.936;2022-07-29T14:44:29;32.40;70.50
13682;DHT22;6913;49.892;7.936;2022-07-29T14:46:59;32.40;70.20
13682;DHT22;6913;49.892;7.936;2022-07-29T14:49:26;32.50;70.40
13682;DHT22;6913;49.892;7.936;2022-07-29T14:51:53;32.60;68.60
13682;DHT22;6913;49.892;7.936;2022-07-29T14:54:20;32.60;68.90
13682;DHT22;6913;49.892;7.936;2022-07-29T14:56:47;32.60;69.70
13682;DHT22;6913;49.892;7.936;2022-07-29T14:59:16;32.40;71.20
13682;DHT22;6913;49.892;7.936;2022-07-29T15:01:43;32.30;71.70
13682;DHT22;6913;49.892;7.936;2022-07-29T15:04:11;32.00;73.00
13682;DHT22;6913;49.892;7.936;2022-07-29T15:06:38;32.00;73.30
13682;DHT22;6913;49.892;7.936;2022-07-29T15:09:05;32.30;73.50
13682;DHT22;6913;49.892;7.936;2022-07-29T15:11:32;32.30;72.20
13682;DHT22;6913;49.892;7.936;2022-07-29T15:13:59;32.60;71.40
13682;DHT22;6913;49.892;7.936;2022-07-29T15:16:26;32.90;71.70
13682;DHT22;6913;49.892;7.936;2022-07-29T15:18:53;32.80;70.90
13682;DHT22;6913;49.892;7.936;2022-07-29T15:21:23;33.10;70.50
13682;DHT22;6913;49.892;7.936;2022-07-29T15:23:50;33.60;70.10
13682;DHT22;6913;49.892;7.936;2022-07-29T15:26:17;33.80;68.60
13682;DHT22;6913;49.892;7.936;2022-07-29T15:28:44;33.80;68.60
13682;DHT22;6913;49.892;7.936;2022-07-29T15:31:11;33.50;68.70
13682;DHT22;6913;49.892;7.936;2022-07-29T15:33:38;33.10;69.90
13682;DHT22;6913;49.892;7.936;2022-07-29T15:36:06;33.00;71.80
13682;DHT22;6913;49.892;7.936;2022-07-29T15:38:34;32.80;72.40
13682;DHT22;6913;49.892;7.936;2022-07-29T15:41:01;32.50;71.50
13682;DHT22;6913;49.892;7.936;2022-07-29T15:43:28;32.50;72.10
13682;DHT22;6913;49.892;7.936;2022-07-29T15:45:55;32.10;75.50
13682;DHT22;6913;49.892;7.936;2022-07-29T15:48:40;31.50;76.00
13682;DHT22;6913;49.892;7.936;2022-07-29T15:51:07;31.20;76.30
13682;DHT22;6913;49.892;7.936;2022-07-29T15:53:35;30.70;79.10
13682;DHT22;6913;49.892;7.936;2022-07-29T15:56:03;29.20;83.00
13682;DHT22;6913;49.892;7.936;2022-07-29T15:58:30;28.50;85.30
13682;DHT22;6913;49.892;7.936;2022-07-29T16:00:57;28.40;86.70
13682;DHT22;6913;49.892;7.936;2022-07-29T16:03:24;28.20;86.10
13682;DHT22;6913;49.892;7.936;2022-07-29T16:05:51;28.00;86.70